sensor_id;sensor_type;location;lat;lon;timestamp;pressure;altitude;pressure_sealevel;temperature;humidity
32789;BME280;19141;48.980;8.410;2023-06-04T04:22:32;100298.69;;;13.58;57.34
32789;BME280;19141;48.980;8.410;2023-06-04T04:24:58;100299.78;;;13.64;57.47
32789;BME280;19141;48.980;8.410;2023-06-04T04:27:24;100304.75;;;13.67;57.06
32789;BME280;19141;48.980;8.410;2023-06-04T04:29:50;100313.41;;;13.69;56.94
32789;BME280;19141;48.980;8.410;2023-06-04T04:32:16;100316.34;;;13.74;56.77
32789;BME280;19141;48.980;8.410;2023-06-04T04:34:52;100311.03;;;13.80;56.32
32789;BME280;19141;48.980;8.410;2023-06-04T04:37:21;100309.19;;;13.81;56.37
32789;BME280;19141;48.980;8.410;2023-06-04T04:39:47;100300.53;;;13.79;56.33
32789;BME280;19141;48.980;8.410;2023-06-04T04:42:13;100320.72;;;13.81;56.50
32789;BME280;19141;48.980;8.410;2023-06-04T04:44:39;100316.19;;;13.82;56.61
32789;BME280;19141;48.980;8.410;2023-06-04T04:47:04;100319.91;;;13.81;56.63
32789;BME280;19141;48.980;8.410;2023-06-04T04:49:30;100319.75;;;13.82;57.00
32789;BME280;19141;48.980;8.410;2023-06-04T04:51:55;100322.47;;;13.89;57.77
32789;BME280;19141;48.980;8.410;2023-06-04T04:54:21;100324.13;;;13.90;57.04
32789;BME280;19141;48.980;8.410;2023-06-04T04:56:46;100324.94;;;13.91;56.67
32789;BME280;19141;48.980;8.410;2023-06-04T04:59:11;100323.34;;;13.96;56.42
32789;BME280;19141;48.980;8.410;2023-06-04T05:01:37;100326.03;;;13.96;56.47
32789;BME280;19141;48.980;8.410;2023-06-04T05:04:04;100331.59;;;14.01;56.46
32789;BME280;19141;48.980;8.410;2023-06-04T05:06:30;100323.06;;;14.12;56.25
32789;BME280;19141;48.980;8.410;2023-06-04T05:08:56;100322.63;;;14.09;56.03
32789;BME280;19141;48.980;8.410;2023-06-04T05:11:21;100317.44;;;14.07;55.84
32789;BME280;19141;48.980;8.410;2023-06-04T05:13:47;100319.22;;;14.22;55.93
32789;BME280;19141;48.980;8.410;2023-06-04T05:16:12;100325.06;;;14.32;55.67
32789;BME280;19141;48.980;8.410;2023-06-04T05:18:41;100321.94;;;14.28;55.42
32789;BME280;19141;48.980;8.410;2023-06-04T05:21:07;100330.88;;;14.35;55.35
32789;BME280;19141;48.980;8.410;2023-06-04T05:23:38;100323.41;;;14.31;55.37
32789;BME280;19141;48.980;8.410;2023-06-04T05:26:05;100331.06;;;14.40;55.15
32789;BME280;19141;48.980;8.410;2023-06-04T05:28:31;100333.25;;;14.52;55.08
32789;BME280;19141;48.980;8.410;2023-06-04T05:31:00;100333.00;;;14.47;55.41
32789;BME280;19141;48.980;8.410;2023-06-04T05:33:30;100330.69;;;14.44;55.64
32789;BME280;19141;48.980;8.410;2023-06-04T05:35:59;100336.44;;;14.62;54.95
32789;BME280;19141;48.980;8.410;2023-06-04T05:38:28;100332.88;;;14.55;55.38
32789;BME280;19141;48.980;8.410;2023-06-04T05:40:58;100341.97;;;14.60;54.80
32789;BME280;19141;48.980;8.410;2023-06-04T05:43:28;100338.50;;;14.66;54.95
32789;BME280;19141;48.980;8.410;2023-06-04T05:45:53;100337.50;;;14.68;55.33
32789;BME280;19141;48.980;8.410;2023-06-04T05:48:19;100340.81;;;14.76;55.38
32789;BME280;19141;48.980;8.410;2023-06-04T05:50:44;100336.81;;;14.93;55.58
32789;BME280;19141;48.980;8.410;2023-06-04T05:53:10;100335.91;;;14.86;55.46
32789;BME280;19141;48.980;8.410;2023-06-04T05:55:36;100336.59;;;14.95;55.32
32789;BME280;19141;48.980;8.410;2023-06-04T05:58:01;100340.38;;;15.07;54.16
32789;BME280;19141;48.980;8.410;2023-06-04T06:00:27;100341.78;;;15.03;54.42
32789;BME280;19141;48.980;8.410;2023-06-04T06:02:53;100344.06;;;15.06;55.20
32789;BME280;19141;48.980;8.410;2023-06-04T06:05:32;100354.69;;;15.34;54.04
32789;BME280;19141;48.980;8.410;2023-06-04T06:07:57;100349.53;;;15.33;53.96
32789;BME280;19141;48.980;8.410;2023-06-04T06:10:23;100356.31;;;15.29;53.46
32789;BME280;19141;48.980;8.410;2023-06-04T06:12:48;100357.59;;;15.33;53.96
32789;BME280;19141;48.980;8.410;2023-06-04T06:15:14;100356.75;;;15.32;53.37
32789;BME280;19141;48.980;8.410;2023-06-04T06:17:42;100359.47;;;15.39;53.39
32789;BME280;19141;48.980;8.410;2023-06-04T06:20:08;100356.13;;;15.37;52.94
32789;BME280;19141;48.980;8.410;2023-06-04T06:22:34;100355.72;;;15.33;53.01
32789;BME280;19141;48.980;8.410;2023-06-04T06:25:02;100365.00;;;15.37;52.90
32789;BME280;19141;48.980;8.410;2023-06-04T06:27:27;100360.31;;;15.46;52.48
32789;BME280;19141;48.980;8.410;2023-06-04T06:29:53;100363.41;;;15.56;52.66
32789;BME280;19141;48.980;8.410;2023-06-04T06:32:18;100363.47;;;15.69;51.48
32789;BME280;19141;48.980;8.410;2023-06-04T06:34:43;100362.03;;;15.67;51.88
32789;BME280;19141;48.980;8.410;2023-06-04T06:37:09;100366.84;;;15.85;52.00
32789;BME280;19141;48.980;8.410;2023-06-04T06:39:34;100367.84;;;15.97;51.25
32789;BME280;19141;48.980;8.410;2023-06-04T06:42:00;100366.41;;;15.94;51.27
32789;BME280;19141;48.980;8.410;2023-06-04T06:44:32;100365.16;;;16.10;50.25
32789;BME280;19141;48.980;8.410;2023-06-04T06:46:57;100372.84;;;16.20;50.52
32789;BME280;19141;48.980;8.410;2023-06-04T06:49:23;100372.22;;;16.31;50.12
32789;BME280;19141;48.980;8.410;2023-06-04T06:51:48;100376.13;;;16.42;49.83
32789;BME280;19141;48.980;8.410;2023-06-04T06:54:16;100362.50;;;16.43;50.39
32789;BME280;19141;48.980;8.410;2023-06-04T06:56:42;100372.19;;;16.64;49.62
32789;BME280;19141;48.980;8.410;2023-06-04T06:59:07;100369.28;;;16.59;50.00
32789;BME280;19141;48.980;8.410;2023-06-04T07:01:32;100370.56;;;16.57;49.62
32789;BME280;19141;48.980;8.410;2023-06-04T07:03:58;100370.34;;;16.71;49.34
32789;BME280;19141;48.980;8.410;2023-06-04T07:06:24;100359.13;;;16.81;49.45
32789;BME280;19141;48.980;8.410;2023-06-04T07:08:49;100370.06;;;16.93;49.36
32789;BME280;19141;48.980;8.410;2023-06-04T07:11:15;100365.91;;;17.03;49.86
32789;BME280;19141;48.980;8.410;2023-06-04T07:13:42;100364.22;;;17.09;49.22
32789;BME280;19141;48.980;8.410;2023-06-04T07:16:07;100366.66;;;17.24;49.48
32789;BME280;19141;48.980;8.410;2023-06-04T07:18:33;100368.28;;;17.25;48.84
32789;BME280;19141;48.980;8.410;2023-06-04T07:20:58;100376.34;;;17.31;48.19
32789;BME280;19141;48.980;8.410;2023-06-04T07:23:24;100378.59;;;17.41;48.27
32789;BME280;19141;48.980;8.410;2023-06-04T07:25:50;100375.16;;;17.59;47.79
32789;BME280;19141;48.980;8.410;2023-06-04T07:28:15;100365.88;;;17.55;47.89
32789;BME280;19141;48.980;8.410;2023-06-04T07:30:41;100375.94;;;17.66;47.90
32789;BME280;19141;48.980;8.410;2023-06-04T07:33:06;100372.38;;;17.79;47.78
32789;BME280;19141;48.980;8.410;2023-06-04T07:35:32;100379.16;;;17.88;48.66
32789;BME280;19141;48.980;8.410;2023-06-04T07:37:57;100375.97;;;17.98;49.01
32789;BME280;19141;48.980;8.410;2023-06-04T07:40:23;100371.75;;;18.08;48.22
32789;BME280;19141;48.980;8.410;2023-06-04T07:42:48;100371.59;;;18.28;48.42
32789;BME280;19141;48.980;8.410;2023-06-04T07:45:15;100370.59;;;18.48;47.06
32789;BME280;19141;48.980;8.410;2023-06-04T07:47:40;100379.34;;;18.43;47.54
32789;BME280;19141;48.980;8.410;2023-06-04T07:50:06;100372.13;;;18.37;47.66
32789;BME280;19141;48.980;8.410;2023-06-04T07:52:33;100374.00;;;18.61;47.26
32789;BME280;19141;48.980;8.410;2023-06-04T07:54:59;100376.00;;;18.73;47.06
32789;BME280;19141;48.980;8.410;2023-06-04T07:57:24;100374.72;;;18.75;47.33
32789;BME280;19141;48.980;8.410;2023-06-04T07:59:51;100374.72;;;18.75;46.77
32789;BME280;19141;48.980;8.410;2023-06-04T08:02:17;100369.84;;;19.02;46.69
32789;BME280;19141;48.980;8.410;2023-06-04T08:04:42;100372.31;;;19.04;46.44
32789;BME280;19141;48.980;8.410;2023-06-04T08:07:08;100373.50;;;19.26;45.41
32789;BME280;19141;48.980;8.410;2023-06-04T08:09:33;100366.13;;;19.33;45.66
32789;BME280;19141;48.980;8.410;2023-06-04T08:12:00;100370.06;;;19.49;46.08
32789;BME280;19141;48.980;8.410;2023-06-04T08:14:25;100369.88;;;19.50;45.20
32789;BME280;19141;48.980;8.410;2023-06-04T08:16:55;100367.88;;;19.76;45.26
32789;BME280;19141;48.980;8.410;2023-06-04T08:19:21;100374.00;;;19.95;44.66
32789;BME280;19141;48.980;8.410;2023-06-04T08:21:46;100373.78;;;19.85;45.16
32789;BME280;19141;48.980;8.410;2023-06-04T08:24:12;100367.53;;;19.84;44.58
32789;BME280;19141;48.980;8.410;2023-06-04T08:26:38;100372.16;;;19.95;44.97
32789;BME280;19141;48.980;8.410;2023-06-04T08:29:03;100373.56;;;19.98;44.50
32789;BME280;19141;48.980;8.410;2023-06-04T08:31:29;100375.81;;;20.13;44.23
32789;BME280;19141;48.980;8.410;2023-06-04T08:33:55;100373.63;;;20.21;43.96
32789;BME280;19141;48.980;8.410;2023-06-04T08:36:20;100377.53;;;20.49;43.48
32789;BME280;19141;48.980;8.410;2023-06-04T08:38:46;100374.97;;;20.54;43.47
32789;BME280;19141;48.980;8.410;2023-06-04T08:41:18;100376.44;;;20.85;43.57
32789;BME280;19141;48.980;8.410;2023-06-04T08:43:45;100382.59;;;20.69;43.28
32789;BME280;19141;48.980;8.410;2023-06-04T08:46:12;100376.13;;;20.70;43.32
32789;BME280;19141;48.980;8.410;2023-06-04T08:48:40;100376.31;;;21.03;43.35
32789;BME280;19141;48.980;8.410;2023-06-04T08:51:06;100379.81;;;21.16;42.96
32789;BME280;19141;48.980;8.410;2023-06-04T08:53:36;100367.38;;;20.91;43.07
32789;BME280;19141;48.980;8.410;2023-06-04T08:56:05;100378.47;;;20.78;43.16
32789;BME280;19141;48.980;8.410;2023-06-04T08:58:31;100377.75;;;20.82;43.57
32789;BME280;19141;48.980;8.410;2023-06-04T09:01:00;100380.16;;;21.19;42.36
32789;BME280;19141;48.980;8.410;2023-06-04T09:03:26;100376.84;;;21.17;42.55
32789;BME280;19141;48.980;8.410;2023-06-04T09:05:54;100382.25;;;21.40;43.13
32789;BME280;19141;48.980;8.410;2023-06-04T09:08:21;100381.09;;;21.65;42.13
32789;BME280;19141;48.980;8.410;2023-06-04T09:10:48;100381.84;;;21.77;41.89
32789;BME280;19141;48.980;8.410;2023-06-04T09:13:18;100377.09;;;22.01;41.53
32789;BME280;19141;48.980;8.410;2023-06-04T09:15:46;100376.66;;;22.21;40.66
32789;BME280;19141;48.980;8.410;2023-06-04T09:18:12;100380.09;;;22.33;40.84
32789;BME280;19141;48.980;8.410;2023-06-04T09:20:37;100385.84;;;22.54;40.11
32789;BME280;19141;48.980;8.410;2023-06-04T09:23:12;100386.72;;;22.76;40.48
32789;BME280;19141;48.980;8.410;2023-06-04T09:25:42;100387.38;;;22.83;40.26
32789;BME280;19141;48.980;8.410;2023-06-04T09:28:07;100387.72;;;22.70;39.63
32789;BME280;19141;48.980;8.410;2023-06-04T09:30:33;100391.81;;;23.33;39.04
32789;BME280;19141;48.980;8.410;2023-06-04T09:33:08;100387.19;;;23.55;37.85
32789;BME280;19141;48.980;8.410;2023-06-04T09:35:33;100377.53;;;23.65;37.67
32789;BME280;19141;48.980;8.410;2023-06-04T09:37:59;100388.41;;;23.92;36.66
32789;BME280;19141;48.980;8.410;2023-06-04T09:40:37;100383.16;;;23.85;37.16
32789;BME280;19141;48.980;8.410;2023-06-04T09:43:03;100384.81;;;24.18;36.04
32789;BME280;19141;48.980;8.410;2023-06-04T09:45:35;100369.50;;;23.75;36.71
32789;BME280;19141;48.980;8.410;2023-06-04T09:48:02;100382.63;;;24.15;36.19
32789;BME280;19141;48.980;8.410;2023-06-04T09:50:33;100381.72;;;24.36;35.85
32789;BME280;19141;48.980;8.410;2023-06-04T09:53:00;100386.44;;;24.46;35.19
32789;BME280;19141;48.980;8.410;2023-06-04T09:55:27;100377.47;;;24.51;35.51
32789;BME280;19141;48.980;8.410;2023-06-04T09:57:53;100379.00;;;24.36;35.22
32789;BME280;19141;48.980;8.410;2023-06-04T10:00:22;100381.31;;;24.55;34.63
32789;BME280;19141;48.980;8.410;2023-06-04T10:02:50;100384.09;;;25.07;33.95
32789;BME280;19141;48.980;8.410;2023-06-04T10:05:19;100374.31;;;25.16;34.29
32789;BME280;19141;48.980;8.410;2023-06-04T10:07:50;100370.03;;;25.41;32.89
32789;BME280;19141;48.980;8.410;2023-06-04T10:10:20;100381.00;;;25.66;32.70
32789;BME280;19141;48.980;8.410;2023-06-04T10:13:05;100368.53;;;26.01;31.33
32789;BME280;19141;48.980;8.410;2023-06-04T10:15:32;100375.06;;;25.80;32.48
32789;BME280;19141;48.980;8.410;2023-06-04T10:17:59;100365.81;;;25.91;31.58
32789;BME280;19141;48.980;8.410;2023-06-04T10:20:27;100369.63;;;26.36;31.64
32789;BME280;19141;48.980;8.410;2023-06-04T10:22:53;100375.09;;;26.56;30.73
32789;BME280;19141;48.980;8.410;2023-06-04T10:25:19;100377.00;;;26.45;31.51
32789;BME280;19141;48.980;8.410;2023-06-04T10:27:45;100371.19;;;26.88;30.98
32789;BME280;19141;48.980;8.410;2023-06-04T10:30:11;100368.41;;;26.98;30.78
32789;BME280;19141;48.980;8.410;2023-06-04T10:32:37;100369.22;;;26.98;29.83
32789;BME280;19141;48.980;8.410;2023-06-04T10:35:06;100363.63;;;27.34;29.79
32789;BME280;19141;48.980;8.410;2023-06-04T10:37:33;100356.34;;;27.19;29.99
32789;BME280;19141;48.980;8.410;2023-06-04T10:39:59;100363.06;;;27.32;29.95
32789;BME280;19141;48.980;8.410;2023-06-04T10:42:25;100358.75;;;27.75;29.55
32789;BME280;19141;48.980;8.410;2023-06-04T10:44:52;100367.13;;;28.23;28.98
32789;BME280;19141;48.980;8.410;2023-06-04T10:47:22;100359.75;;;28.24;28.44
32789;BME280;19141;48.980;8.410;2023-06-04T10:49:50;100356.41;;;27.98;28.44
32789;BME280;19141;48.980;8.410;2023-06-04T10:52:15;100362.41;;;28.29;29.37
32789;BME280;19141;48.980;8.410;2023-06-04T10:54:42;100358.31;;;28.31;28.38
32789;BME280;19141;48.980;8.410;2023-06-04T10:57:15;100359.09;;;28.37;27.85
32789;BME280;19141;48.980;8.410;2023-06-04T10:59:41;100364.13;;;28.54;28.21
32789;BME280;19141;48.980;8.410;2023-06-04T11:02:08;100350.28;;;28.69;27.75
32789;BME280;19141;48.980;8.410;2023-06-04T11:04:35;100357.28;;;29.04;27.40
32789;BME280;19141;48.980;8.410;2023-06-04T11:07:06;100363.34;;;29.01;27.59
32789;BME280;19141;48.980;8.410;2023-06-04T11:09:37;100345.09;;;29.34;27.21
32789;BME280;19141;48.980;8.410;2023-06-04T11:12:04;100352.41;;;29.63;25.99
32789;BME280;19141;48.980;8.410;2023-06-04T11:14:30;100337.56;;;29.21;26.93
32789;BME280;19141;48.980;8.410;2023-06-04T11:16:56;100345.09;;;29.72;26.19
32789;BME280;19141;48.980;8.410;2023-06-04T11:19:21;100344.91;;;29.68;26.17
32789;BME280;19141;48.980;8.410;2023-06-04T11:21:47;100353.34;;;30.23;25.13
32789;BME280;19141;48.980;8.410;2023-06-04T11:24:13;100341.09;;;29.64;25.06
32789;BME280;19141;48.980;8.410;2023-06-04T11:26:39;100350.13;;;29.08;25.19
32789;BME280;19141;48.980;8.410;2023-06-04T11:29:10;100353.66;;;29.09;25.54
32789;BME280;19141;48.980;8.410;2023-06-04T11:31:45;100340.69;;;28.66;26.08
32789;BME280;19141;48.980;8.410;2023-06-04T11:34:11;100338.00;;;29.52;25.17
32789;BME280;19141;48.980;8.410;2023-06-04T11:36:47;100342.13;;;29.87;24.89
32789;BME280;19141;48.980;8.410;2023-06-04T11:39:14;100337.50;;;30.34;23.92
32789;BME280;19141;48.980;8.410;2023-06-04T11:41:41;100339.47;;;30.47;23.75
32789;BME280;19141;48.980;8.410;2023-06-04T11:44:07;100332.97;;;29.92;23.72
32789;BME280;19141;48.980;8.410;2023-06-04T11:46:33;100329.59;;;29.43;23.76
32789;BME280;19141;48.980;8.410;2023-06-04T11:48:59;100342.91;;;29.74;23.21
32789;BME280;19141;48.980;8.410;2023-06-04T11:51:25;100333.81;;;30.25;23.26
32789;BME280;19141;48.980;8.410;2023-06-04T11:53:51;100334.09;;;30.10;23.19
32789;BME280;19141;48.980;8.410;2023-06-04T11:56:17;100343.94;;;30.11;22.65
32789;BME280;19141;48.980;8.410;2023-06-04T11:58:43;100333.69;;;30.76;23.05
32789;BME280;19141;48.980;8.410;2023-06-04T12:01:11;100340.50;;;31.06;23.16
32789;BME280;19141;48.980;8.410;2023-06-04T12:03:40;100335.00;;;30.19;23.45
32789;BME280;19141;48.980;8.410;2023-06-04T12:08:47;100338.22;;;31.22;21.74
32789;BME280;19141;48.980;8.410;2023-06-04T12:13:53;100332.69;;;30.72;21.48
32789;BME280;19141;48.980;8.410;2023-06-04T12:16:18;100334.31;;;30.73;21.73
32789;BME280;19141;48.980;8.410;2023-06-04T12:18:44;100321.09;;;30.15;21.86
32789;BME280;19141;48.980;8.410;2023-06-04T12:21:23;100318.91;;;31.14;22.42
32789;BME280;19141;48.980;8.410;2023-06-04T12:24:13;100323.59;;;31.13;21.79
32789;BME280;19141;48.980;8.410;2023-06-04T12:26:41;100324.81;;;31.57;20.44
32789;BME280;19141;48.980;8.410;2023-06-04T12:29:13;100323.97;;;31.34;21.83
32789;BME280;19141;48.980;8.410;2023-06-04T12:31:42;100315.66;;;31.25;21.33
32789;BME280;19141;48.980;8.410;2023-06-04T12:34:07;100320.84;;;30.99;21.83
32789;BME280;19141;48.980;8.410;2023-06-04T12:36:33;100318.53;;;31.79;21.86
32789;BME280;19141;48.980;8.410;2023-06-04T12:39:02;100318.03;;;31.99;21.16
32789;BME280;19141;48.980;8.410;2023-06-04T12:41:28;100316.88;;;31.05;21.84
32789;BME280;19141;48.980;8.410;2023-06-04T12:43:54;100315.31;;;32.08;21.03
32789;BME280;19141;48.980;8.410;2023-06-04T12:46:20;100325.78;;;31.97;20.74
32789;BME280;19141;48.980;8.410;2023-06-04T12:48:47;100326.13;;;32.58;20.45
32789;BME280;19141;48.980;8.410;2023-06-04T12:51:12;100319.94;;;32.52;21.57
32789;BME280;19141;48.980;8.410;2023-06-04T12:53:41;100320.13;;;32.87;20.60
32789;BME280;19141;48.980;8.410;2023-06-04T12:56:07;100326.25;;;31.91;20.45
32789;BME280;19141;48.980;8.410;2023-06-04T12:58:33;100324.16;;;32.50;19.80
32789;BME280;19141;48.980;8.410;2023-06-04T13:00:59;100314.06;;;32.85;20.14
32789;BME280;19141;48.980;8.410;2023-06-04T13:03:25;100311.66;;;32.92;21.27
32789;BME280;19141;48.980;8.410;2023-06-04T13:05:51;100300.81;;;32.25;21.54
32789;BME280;19141;48.980;8.410;2023-06-04T13:08:21;100308.78;;;31.37;23.16
32789;BME280;19141;48.980;8.410;2023-06-04T13:10:48;100318.69;;;31.10;22.94
32789;BME280;19141;48.980;8.410;2023-06-04T13:13:14;100311.56;;;31.09;24.10
32789;BME280;19141;48.980;8.410;2023-06-04T13:15:41;100303.13;;;30.50;25.05
32789;BME280;19141;48.980;8.410;2023-06-04T13:18:07;100289.75;;;30.16;24.74
32789;BME280;19141;48.980;8.410;2023-06-04T13:20:32;100301.19;;;30.05;23.55
32789;BME280;19141;48.980;8.410;2023-06-04T13:22:58;100300.31;;;29.58;25.59
32789;BME280;19141;48.980;8.410;2023-06-04T13:25:23;100294.16;;;28.61;28.67
32789;BME280;19141;48.980;8.410;2023-06-04T13:27:49;100298.38;;;29.02;26.05
32789;BME280;19141;48.980;8.410;2023-06-04T13:30:14;100307.09;;;28.56;25.13
32789;BME280;19141;48.980;8.410;2023-06-04T13:32:40;100302.88;;;28.45;26.12
32789;BME280;19141;48.980;8.410;2023-06-04T13:35:05;100299.56;;;28.43;26.86
32789;BME280;19141;48.980;8.410;2023-06-04T13:37:31;100294.09;;;28.13;30.78
32789;BME280;19141;48.980;8.410;2023-06-04T13:39:56;100303.06;;;28.24;26.93
32789;BME280;19141;48.980;8.410;2023-06-04T13:42:22;100302.63;;;28.12;29.19
32789;BME280;19141;48.980;8.410;2023-06-04T13:44:47;100297.69;;;27.41;27.05
32789;BME280;19141;48.980;8.410;2023-06-04T13:47:12;100294.59;;;27.52;30.09
32789;BME280;19141;48.980;8.410;2023-06-04T13:49:38;100298.25;;;27.38;28.74
32789;BME280;19141;48.980;8.410;2023-06-04T13:52:03;100289.56;;;27.25;28.04
32789;BME280;19141;48.980;8.410;2023-06-04T13:54:29;100283.13;;;27.06;28.39
32789;BME280;19141;48.980;8.410;2023-06-04T13:56:54;100277.25;;;27.28;28.54
32789;BME280;19141;48.980;8.410;2023-06-04T13:59:20;100277.38;;;27.13;28.14
32789;BME280;19141;48.980;8.410;2023-06-04T14:01:45;100282.91;;;27.42;28.10
32789;BME280;19141;48.980;8.410;2023-06-04T14:04:11;100279.88;;;27.43;28.34
32789;BME280;19141;48.980;8.410;2023-06-04T14:06:37;100273.06;;;27.41;27.52
32789;BME280;19141;48.980;8.410;2023-06-04T14:09:03;100273.72;;;27.22;28.30
32789;BME280;19141;48.980;8.410;2023-06-04T14:11:30;100275.56;;;26.83;27.41
32789;BME280;19141;48.980;8.410;2023-06-04T14:13:57;100274.34;;;27.09;27.51
32789;BME280;19141;48.980;8.410;2023-06-04T14:16:23;100272.19;;;27.01;29.28
32789;BME280;19141;48.980;8.410;2023-06-04T14:18:48;100269.63;;;26.60;27.01
32789;BME280;19141;48.980;8.410;2023-06-04T14:21:14;100266.59;;;26.67;27.50
32789;BME280;19141;48.980;8.410;2023-06-04T14:23:39;100275.72;;;26.42;27.47
32789;BME280;19141;48.980;8.410;2023-06-04T14:26:04;100268.28;;;26.52;27.54
32789;BME280;19141;48.980;8.410;2023-06-04T14:28:30;100264.41;;;26.69;27.44
32789;BME280;19141;48.980;8.410;2023-06-04T14:30:56;100268.75;;;26.75;27.08
32789;BME280;19141;48.980;8.410;2023-06-04T14:33:23;100272.81;;;26.83;27.37
32789;BME280;19141;48.980;8.410;2023-06-04T14:35:48;100267.06;;;26.84;28.87
32789;BME280;19141;48.980;8.410;2023-06-04T14:38:14;100268.31;;;26.47;26.68
32789;BME280;19141;48.980;8.410;2023-06-04T14:40:40;100273.50;;;26.54;27.10
32789;BME280;19141;48.980;8.410;2023-06-04T14:43:07;100260.13;;;26.32;26.68
32789;BME280;19141;48.980;8.410;2023-06-04T14:45:32;100261.53;;;26.19;26.73
32789;BME280;19141;48.980;8.410;2023-06-04T14:47:58;100266.13;;;26.39;25.86
32789;BME280;19141;48.980;8.410;2023-06-04T14:50:23;100263.69;;;26.48;25.87
32789;BME280;19141;48.980;8.410;2023-06-04T14:52:48;100257.41;;;26.32;26.55
32789;BME280;19141;48.980;8.410;2023-06-04T14:55:14;100260.66;;;26.39;26.06
32789;BME280;19141;48.980;8.410;2023-06-04T14:57:39;100259.03;;;26.38;24.92
32789;BME280;19141;48.980;8.410;2023-06-04T15:00:06;100255.50;;;26.28;23.76
32789;BME280;19141;48.980;8.410;2023-06-04T15:02:31;100242.41;;;26.14;23.93
32789;BME280;19141;48.980;8.410;2023-06-04T15:04:57;100247.88;;;26.14;24.57
32789;BME280;19141;48.980;8.410;2023-06-04T15:07:22;100250.59;;;26.24;25.01
32789;BME280;19141;48.980;8.410;2023-06-04T15:09:48;100230.44;;;26.10;24.74
32789;BME280;19141;48.980;8.410;2023-06-04T15:12:16;100243.84;;;25.96;25.20
32789;BME280;19141;48.980;8.410;2023-06-04T15:14:43;100245.47;;;25.92;25.43
32789;BME280;19141;48.980;8.410;2023-06-04T15:17:08;100240.53;;;25.94;25.65
32789;BME280;19141;48.980;8.410;2023-06-04T15:19:34;100257.75;;;25.85;24.93
32789;BME280;19141;48.980;8.410;2023-06-04T15:22:00;100248.22;;;25.82;25.15
32789;BME280;19141;48.980;8.410;2023-06-04T15:24:25;100248.50;;;25.76;25.46
32789;BME280;19141;48.980;8.410;2023-06-04T15:26:51;100248.75;;;25.84;25.73
32789;BME280;19141;48.980;8.410;2023-06-04T15:29:16;100243.06;;;25.76;26.46
32789;BME280;19141;48.980;8.410;2023-06-04T15:31:42;100241.66;;;25.73;25.61
32789;BME280;19141;48.980;8.410;2023-06-04T15:34:07;100245.72;;;25.65;25.45
32789;BME280;19141;48.980;8.410;2023-06-04T15:36:33;100244.38;;;25.63;25.46
32789;BME280;19141;48.980;8.410;2023-06-04T15:38:59;100238.91;;;25.58;25.51
32789;BME280;19141;48.980;8.410;2023-06-04T15:41:25;100243.00;;;25.50;25.39
32789;BME280;19141;48.980;8.410;2023-06-04T15:43:51;100234.00;;;25.44;24.81
32789;BME280;19141;48.980;8.410;2023-06-04T15:46:18;100233.72;;;25.41;25.10
32789;BME280;19141;48.980;8.410;2023-06-04T15:48:43;100233.19;;;25.54;24.86
32789;BME280;19141;48.980;8.410;2023-06-04T15:51:09;100244.34;;;25.42;25.24
32789;BME280;19141;48.980;8.410;2023-06-04T15:53:34;100235.38;;;25.47;25.48
32789;BME280;19141;48.980;8.410;2023-06-04T15:55:59;100227.47;;;25.30;25.40
32789;BME280;19141;48.980;8.410;2023-06-04T15:58:25;100224.44;;;25.27;26.08
32789;BME280;19141;48.980;8.410;2023-06-04T16:00:51;100232.63;;;25.47;26.26
32789;BME280;19141;48.980;8.410;2023-06-04T16:03:17;100229.09;;;25.47;25.61
32789;BME280;19141;48.980;8.410;2023-06-04T16:05:42;100227.19;;;25.47;26.23
32789;BME280;19141;48.980;8.410;2023-06-04T16:08:07;100219.53;;;25.49;26.17
32789;BME280;19141;48.980;8.410;2023-06-04T16:10:33;100223.91;;;25.45;26.13
32789;BME280;19141;48.980;8.410;2023-06-04T16:12:58;100215.44;;;25.36;25.75
32789;BME280;19141;48.980;8.410;2023-06-04T16:15:24;100214.91;;;25.39;26.34
32789;BME280;19141;48.980;8.410;2023-06-04T16:17:50;100214.66;;;25.46;25.67
32789;BME280;19141;48.980;8.410;2023-06-04T16:20:15;100203.19;;;25.39;25.44
32789;BME280;19141;48.980;8.410;2023-06-04T16:22:41;100215.72;;;25.40;26.14
32789;BME280;19141;48.980;8.410;2023-06-04T16:25:07;100205.66;;;25.46;25.74
32789;BME280;19141;48.980;8.410;2023-06-04T16:27:32;100211.91;;;25.26;25.53
32789;BME280;19141;48.980;8.410;2023-06-04T16:29:58;100208.09;;;25.37;25.03
32789;BME280;19141;48.980;8.410;2023-06-04T16:32:24;100202.09;;;25.25;26.09
32789;BME280;19141;48.980;8.410;2023-06-04T16:34:49;100201.28;;;25.24;25.96
32789;BME280;19141;48.980;8.410;2023-06-04T16:37:15;100215.16;;;25.23;26.23
32789;BME280;19141;48.980;8.410;2023-06-04T16:39:40;100210.81;;;25.22;26.27
32789;BME280;19141;48.980;8.410;2023-06-04T16:42:06;100208.91;;;25.17;25.80
32789;BME280;19141;48.980;8.410;2023-06-04T16:44:33;100208.91;;;25.12;26.37
32789;BME280;19141;48.980;8.410;2023-06-04T16:46:58;100211.34;;;25.13;26.21
32789;BME280;19141;48.980;8.410;2023-06-04T16:49:23;100202.34;;;25.13;26.34
32789;BME280;19141;48.980;8.410;2023-06-04T16:51:49;100199.03;;;25.01;26.32
32789;BME280;19141;48.980;8.410;2023-06-04T16:54:14;100200.91;;;24.95;25.39
32789;BME280;19141;48.980;8.410;2023-06-04T16:56:40;100199.31;;;24.99;25.22
32789;BME280;19141;48.980;8.410;2023-06-04T16:59:06;100207.47;;;24.99;25.74
32789;BME280;19141;48.980;8.410;2023-06-04T17:01:31;100210.19;;;24.94;25.54
32789;BME280;19141;48.980;8.410;2023-06-04T17:03:56;100213.19;;;24.98;25.85
32789;BME280;19141;48.980;8.410;2023-06-04T17:06:22;100200.88;;;24.75;25.67
32789;BME280;19141;48.980;8.410;2023-06-04T17:08:47;100215.00;;;24.67;26.50
32789;BME280;19141;48.980;8.410;2023-06-04T17:11:13;100203.88;;;24.78;25.80
32789;BME280;19141;48.980;8.410;2023-06-04T17:13:39;100208.78;;;24.81;25.55